sensor_id;sensor_type;location;lat;lon;timestamp;pressure;altitude;pressure_sealevel;temperature;humidity
34065;BME280;20339;49.754;20.158;2023-04-30T00:01:42;96498.48;;;9.82;90.31
34065;BME280;20339;49.754;20.158;2023-04-30T00:04:13;96496.98;;;9.83;90.59
34065;BME280;20339;49.754;20.158;2023-04-30T00:06:44;96497.60;;;9.81;90.86
34065;BME280;20339;49.754;20.158;2023-04-30T00:09:15;96497.79;;;9.77;91.31
34065;BME280;20339;49.754;20.158;2023-04-30T00:11:46;96496.91;;;9.75;91.56
34065;BME280;20339;49.754;20.158;2023-04-30T00:14:17;96500.95;;;9.73;91.95
34065;BME280;20339;49.754;20.158;2023-04-30T00:16:48;96499.63;;;9.71;92.57
34065;BME280;20339;49.754;20.158;2023-04-30T00:19:19;96496.34;;;9.69;92.66
34065;BME280;20339;49.754;20.158;2023-04-30T00:21:50;96499.63;;;9.70;92.98
34065;BME280;20339;49.754;20.158;2023-04-30T00:24:21;96499.73;;;9.69;93.21
34065;BME280;20339;49.754;20.158;2023-04-30T00:26:52;96500.21;;;9.69;93.34
34065;BME280;20339;49.754;20.158;2023-04-30T00:29:23;96498.58;;;9.69;93.52
34065;BME280;20339;49.754;20.158;2023-04-30T00:31:54;96497.56;;;9.70;93.39
34065;BME280;20339;49.754;20.158;2023-04-30T00:34:25;96498.14;;;9.74;93.39
34065;BME280;20339;49.754;20.158;2023-04-30T00:36:56;96501.38;;;9.79;93.48
34065;BME280;20339;49.754;20.158;2023-04-30T00:39:27;96499.39;;;9.82;93.48
34065;BME280;20339;49.754;20.158;2023-04-30T00:41:58;96502.13;;;9.83;93.49
34065;BME280;20339;49.754;20.158;2023-04-30T00:44:29;96500.84;;;9.84;93.48
34065;BME280;20339;49.754;20.158;2023-04-30T00:47:01;96504.61;;;9.87;93.51
34065;BME280;20339;49.754;20.158;2023-04-30T00:49:32;96505.83;;;9.88;93.92
34065;BME280;20339;49.754;20.158;2023-04-30T00:52:03;96506.20;;;9.85;94.12
34065;BME280;20339;49.754;20.158;2023-04-30T00:54:35;96505.05;;;9.86;94.07
34065;BME280;20339;49.754;20.158;2023-04-30T00:57:08;96504.04;;;9.83;94.49
34065;BME280;20339;49.754;20.158;2023-04-30T00:59:41;96500.20;;;9.79;95.09
34065;BME280;20339;49.754;20.158;2023-04-30T01:02:13;96499.90;;;9.78;95.80
34065;BME280;20339;49.754;20.158;2023-04-30T01:04:46;96503.19;;;9.77;96.71
34065;BME280;20339;49.754;20.158;2023-04-30T01:07:17;96502.34;;;9.78;97.44
34065;BME280;20339;49.754;20.158;2023-04-30T01:09:48;96500.68;;;9.79;97.42
34065;BME280;20339;49.754;20.158;2023-04-30T01:12:24;96499.98;;;9.81;97.52
34065;BME280;20339;49.754;20.158;2023-04-30T01:15:03;96494.19;;;9.83;98.41
34065;BME280;20339;49.754;20.158;2023-04-30T01:17:43;96497.89;;;9.84;98.90
34065;BME280;20339;49.754;20.158;2023-04-30T01:20:16;96497.84;;;9.85;98.96
34065;BME280;20339;49.754;20.158;2023-04-30T01:22:54;96502.34;;;9.85;99.67
34065;BME280;20339;49.754;20.158;2023-04-30T01:25:41;96502.55;;;9.85;99.82
34065;BME280;20339;49.754;20.158;2023-04-30T01:28:15;96502.86;;;9.85;100.00
34065;BME280;20339;49.754;20.158;2023-04-30T01:30:49;96500.27;;;9.85;100.00
34065;BME280;20339;49.754;20.158;2023-04-30T01:33:20;96502.02;;;9.85;100.00
34065;BME280;20339;49.754;20.158;2023-04-30T01:36:01;96507.00;;;9.84;100.00
34065;BME280;20339;49.754;20.158;2023-04-30T01:38:45;96510.61;;;9.83;100.00
34065;BME280;20339;49.754;20.158;2023-04-30T01:41:28;96511.36;;;9.82;100.00
34065;BME280;20339;49.754;20.158;2023-04-30T01:44:22;96515.85;;;9.82;100.00
34065;BME280;20339;49.754;20.158;2023-04-30T01:47:01;96510.39;;;9.82;100.00
34065;BME280;20339;49.754;20.158;2023-04-30T01:49:38;96510.39;;;9.83;100.00
34065;BME280;20339;49.754;20.158;2023-04-30T01:52:16;96506.78;;;9.85;100.00
34065;BME280;20339;49.754;20.158;2023-04-30T01:54:54;96509.06;;;9.87;100.00
34065;BME280;20339;49.754;20.158;2023-04-30T01:57:31;96511.17;;;9.88;100.00
34065;BME280;20339;49.754;20.158;2023-04-30T02:00:03;96507.99;;;9.88;100.00
34065;BME280;20339;49.754;20.158;2023-04-30T02:02:37;96511.34;;;9.87;100.00
34065;BME280;20339;49.754;20.158;2023-04-30T02:05:09;96512.08;;;9.88;100.00
34065;BME280;20339;49.754;20.158;2023-04-30T02:07:42;96515.24;;;9.89;100.00
34065;BME280;20339;49.754;20.158;2023-04-30T02:10:15;96514.71;;;9.89;100.00
34065;BME280;20339;49.754;20.158;2023-04-30T02:12:46;96516.46;;;9.88;100.00
34065;BME280;20339;49.754;20.158;2023-04-30T02:15:17;96516.37;;;9.88;100.00
34065;BME280;20339;49.754;20.158;2023-04-30T02:17:48;96517.11;;;9.88;100.00
34065;BME280;20339;49.754;20.158;2023-04-30T02:20:19;96517.21;;;9.88;100.00
34065;BME280;20339;49.754;20.158;2023-04-30T02:22:51;96515.84;;;9.85;100.00
34065;BME280;20339;49.754;20.158;2023-04-30T02:25:22;96520.27;;;9.81;100.00
34065;BME280;20339;49.754;20.158;2023-04-30T02:27:53;96520.80;;;9.80;100.00
34065;BME280;20339;49.754;20.158;2023-04-30T02:30:24;96518.29;;;9.77;100.00
34065;BME280;20339;49.754;20.158;2023-04-30T02:32:55;96516.40;;;9.74;100.00
34065;BME280;20339;49.754;20.158;2023-04-30T02:35:26;96519.73;;;9.71;100.00
34065;BME280;20339;49.754;20.158;2023-04-30T02:37:57;96519.60;;;9.68;100.00
34065;BME280;20339;49.754;20.158;2023-04-30T02:40:28;96519.79;;;9.65;100.00
34065;BME280;20339;49.754;20.158;2023-04-30T02:42:59;96522.79;;;9.61;100.00
34065;BME280;20339;49.754;20.158;2023-04-30T02:45:31;96523.90;;;9.57;100.00
34065;BME280;20339;49.754;20.158;2023-04-30T02:48:02;96526.36;;;9.52;100.00
34065;BME280;20339;49.754;20.158;2023-04-30T02:50:33;96527.96;;;9.50;100.00
34065;BME280;20339;49.754;20.158;2023-04-30T02:53:04;96532.89;;;9.49;100.00
34065;BME280;20339;49.754;20.158;2023-04-30T02:55:35;96534.38;;;9.49;100.00
34065;BME280;20339;49.754;20.158;2023-04-30T02:58:06;96533.48;;;9.48;100.00
34065;BME280;20339;49.754;20.158;2023-04-30T03:00:36;96530.63;;;9.48;100.00
34065;BME280;20339;49.754;20.158;2023-04-30T03:03:07;96535.91;;;9.49;100.00
34065;BME280;20339;49.754;20.158;2023-04-30T03:05:38;96533.84;;;9.50;100.00
34065;BME280;20339;49.754;20.158;2023-04-30T03:08:09;96537.44;;;9.50;100.00
34065;BME280;20339;49.754;20.158;2023-04-30T03:10:41;96540.40;;;9.51;100.00
34065;BME280;20339;49.754;20.158;2023-04-30T03:13:12;96538.59;;;9.51;100.00
34065;BME280;20339;49.754;20.158;2023-04-30T03:15:43;96535.73;;;9.52;100.00
34065;BME280;20339;49.754;20.158;2023-04-30T03:18:14;96545.42;;;9.51;100.00
34065;BME280;20339;49.754;20.158;2023-04-30T03:20:44;96544.48;;;9.50;100.00
34065;BME280;20339;49.754;20.158;2023-04-30T03:23:15;96543.80;;;9.49;100.00
34065;BME280;20339;49.754;20.158;2023-04-30T03:25:46;96548.89;;;9.48;100.00
34065;BME280;20339;49.754;20.158;2023-04-30T03:28:17;96548.59;;;9.45;100.00
34065;BME280;20339;49.754;20.158;2023-04-30T03:30:48;96550.29;;;9.43;100.00
34065;BME280;20339;49.754;20.158;2023-04-30T03:33:19;96554.78;;;9.40;100.00
34065;BME280;20339;49.754;20.158;2023-04-30T03:35:50;96556.29;;;9.37;100.00
34065;BME280;20339;49.754;20.158;2023-04-30T03:38:21;96552.91;;;9.34;100.00
34065;BME280;20339;49.754;20.158;2023-04-30T03:40:52;96553.77;;;9.32;100.00
34065;BME280;20339;49.754;20.158;2023-04-30T03:43:24;96553.26;;;9.29;100.00
34065;BME280;20339;49.754;20.158;2023-04-30T03:45:55;96559.41;;;9.23;100.00
34065;BME280;20339;49.754;20.158;2023-04-30T03:48:26;96565.30;;;9.19;100.00
34065;BME280;20339;49.754;20.158;2023-04-30T03:50:56;96572.08;;;9.15;100.00
34065;BME280;20339;49.754;20.158;2023-04-30T03:53:27;96574.67;;;9.13;100.00
34065;BME280;20339;49.754;20.158;2023-04-30T03:55:59;96578.74;;;9.12;100.00
34065;BME280;20339;49.754;20.158;2023-04-30T03:58:30;96580.44;;;9.11;100.00
34065;BME280;20339;49.754;20.158;2023-04-30T04:01:02;96580.34;;;9.11;100.00
34065;BME280;20339;49.754;20.158;2023-04-30T04:03:34;96585.36;;;9.10;100.00
34065;BME280;20339;49.754;20.158;2023-04-30T04:06:06;96581.73;;;9.09;100.00
34065;BME280;20339;49.754;20.158;2023-04-30T04:08:37;96590.56;;;9.07;100.00
34065;BME280;20339;49.754;20.158;2023-04-30T04:11:12;96592.27;;;9.04;100.00
34065;BME280;20339;49.754;20.158;2023-04-30T04:13:43;96595.45;;;9.03;100.00
34065;BME280;20339;49.754;20.158;2023-04-30T04:16:15;96592.80;;;9.03;100.00
34065;BME280;20339;49.754;20.158;2023-04-30T04:18:46;96589.69;;;9.03;100.00
34065;BME280;20339;49.754;20.158;2023-04-30T04:21:17;96597.52;;;9.02;100.00
34065;BME280;20339;49.754;20.158;2023-04-30T04:23:48;96604.27;;;9.04;100.00
34065;BME280;20339;49.754;20.158;2023-04-30T04:26:19;96610.77;;;9.05;100.00
34065;BME280;20339;49.754;20.158;2023-04-30T04:28:53;96610.04;;;9.06;100.00
34065;BME280;20339;49.754;20.158;2023-04-30T04:31:24;96602.67;;;9.08;100.00
34065;BME280;20339;49.754;20.158;2023-04-30T04:33:55;96609.77;;;9.08;100.00
34065;BME280;20339;49.754;20.158;2023-04-30T04:36:27;96605.77;;;9.09;100.00
34065;BME280;20339;49.754;20.158;2023-04-30T04:38:59;96607.84;;;9.11;100.00
34065;BME280;20339;49.754;20.158;2023-04-30T04:41:31;96608.89;;;9.13;100.00
34065;BME280;20339;49.754;20.158;2023-04-30T04:44:04;96615.98;;;9.16;100.00
34065;BME280;20339;49.754;20.158;2023-04-30T04:46:35;96617.41;;;9.19;100.00
34065;BME280;20339;49.754;20.158;2023-04-30T04:49:10;96621.73;;;9.21;100.00
34065;BME280;20339;49.754;20.158;2023-04-30T04:51:42;96629.93;;;9.22;100.00
34065;BME280;20339;49.754;20.158;2023-04-30T04:54:15;96632.52;;;9.22;100.00
34065;BME280;20339;49.754;20.158;2023-04-30T04:56:46;96633.17;;;9.20;100.00
34065;BME280;20339;49.754;20.158;2023-04-30T04:59:18;96637.58;;;9.16;100.00
34065;BME280;20339;49.754;20.158;2023-04-30T05:01:49;96641.23;;;9.15;100.00
34065;BME280;20339;49.754;20.158;2023-04-30T05:04:21;96640.95;;;9.12;100.00
34065;BME280;20339;49.754;20.158;2023-04-30T05:06:51;96638.58;;;9.10;100.00
34065;BME280;20339;49.754;20.158;2023-04-30T05:09:23;96647.41;;;9.10;100.00
34065;BME280;20339;49.754;20.158;2023-04-30T05:11:54;96647.40;;;9.12;100.00
34065;BME280;20339;49.754;20.158;2023-04-30T05:14:25;96647.08;;;9.13;100.00
34065;BME280;20339;49.754;20.158;2023-04-30T05:16:56;96654.17;;;9.14;100.00
34065;BME280;20339;49.754;20.158;2023-04-30T05:19:27;96652.06;;;9.16;100.00
34065;BME280;20339;49.754;20.158;2023-04-30T05:21:58;96658.25;;;9.16;100.00
34065;BME280;20339;49.754;20.158;2023-04-30T05:24:30;96666.14;;;9.15;100.00
34065;BME280;20339;49.754;20.158;2023-04-30T05:27:01;96663.91;;;9.15;100.00
34065;BME280;20339;49.754;20.158;2023-04-30T05:29:34;96672.31;;;9.13;100.00
34065;BME280;20339;49.754;20.158;2023-04-30T05:32:06;96673.90;;;9.11;100.00
34065;BME280;20339;49.754;20.158;2023-04-30T05:34:37;96680.05;;;9.10;100.00
34065;BME280;20339;49.754;20.158;2023-04-30T05:37:08;96685.39;;;9.10;100.00
34065;BME280;20339;49.754;20.158;2023-04-30T05:39:41;96685.55;;;9.10;100.00
34065;BME280;20339;49.754;20.158;2023-04-30T05:42:12;96689.25;;;9.09;100.00
34065;BME280;20339;49.754;20.158;2023-04-30T05:44:43;96692.48;;;9.06;100.00
34065;BME280;20339;49.754;20.158;2023-04-30T05:47:14;96694.08;;;9.05;100.00
34065;BME280;20339;49.754;20.158;2023-04-30T05:49:46;96697.84;;;9.02;100.00
34065;BME280;20339;49.754;20.158;2023-04-30T05:52:17;96702.27;;;9.01;100.00
34065;BME280;20339;49.754;20.158;2023-04-30T05:54:48;96706.64;;;8.99;100.00
34065;BME280;20339;49.754;20.158;2023-04-30T05:57:19;96704.34;;;8.95;100.00
34065;BME280;20339;49.754;20.158;2023-04-30T05:59:51;96716.77;;;8.94;100.00
34065;BME280;20339;49.754;20.158;2023-04-30T06:02:22;96725.27;;;8.92;100.00
34065;BME280;20339;49.754;20.158;2023-04-30T06:04:53;96727.55;;;8.92;100.00
34065;BME280;20339;49.754;20.158;2023-04-30T06:07:24;96728.14;;;8.88;100.00
34065;BME280;20339;49.754;20.158;2023-04-30T06:09:56;96727.54;;;8.82;100.00
34065;BME280;20339;49.754;20.158;2023-04-30T06:12:27;96721.77;;;8.75;100.00
34065;BME280;20339;49.754;20.158;2023-04-30T06:14:59;96741.96;;;8.65;100.00
34065;BME280;20339;49.754;20.158;2023-04-30T06:17:30;96737.40;;;8.58;100.00
34065;BME280;20339;49.754;20.158;2023-04-30T06:20:02;96747.30;;;8.44;100.00
34065;BME280;20339;49.754;20.158;2023-04-30T06:22:35;96754.41;;;8.36;100.00
34065;BME280;20339;49.754;20.158;2023-04-30T06:25:08;96755.10;;;8.29;100.00
34065;BME280;20339;49.754;20.158;2023-04-30T06:27:40;96752.81;;;8.24;100.00
34065;BME280;20339;49.754;20.158;2023-04-30T06:30:13;96762.27;;;8.23;100.00
34065;BME280;20339;49.754;20.158;2023-04-30T06:32:44;96757.25;;;8.21;100.00
34065;BME280;20339;49.754;20.158;2023-04-30T06:35:16;96771.26;;;8.11;100.00
34065;BME280;20339;49.754;20.158;2023-04-30T06:37:47;96772.98;;;8.05;100.00
34065;BME280;20339;49.754;20.158;2023-04-30T06:40:18;96774.37;;;8.01;100.00
34065;BME280;20339;49.754;20.158;2023-04-30T06:42:50;96780.20;;;7.94;100.00
34065;BME280;20339;49.754;20.158;2023-04-30T06:45:23;96786.80;;;7.90;100.00
34065;BME280;20339;49.754;20.158;2023-04-30T06:47:54;96781.42;;;7.85;100.00
34065;BME280;20339;49.754;20.158;2023-04-30T06:50:26;96787.84;;;7.80;100.00
34065;BME280;20339;49.754;20.158;2023-04-30T06:52:57;96793.48;;;7.78;100.00
34065;BME280;20339;49.754;20.158;2023-04-30T06:55:28;96804.52;;;7.81;100.00
34065;BME280;20339;49.754;20.158;2023-04-30T06:58:00;96807.80;;;7.81;100.00
34065;BME280;20339;49.754;20.158;2023-04-30T07:00:31;96805.63;;;7.81;100.00
34065;BME280;20339;49.754;20.158;2023-04-30T07:03:02;96808.50;;;7.84;100.00
34065;BME280;20339;49.754;20.158;2023-04-30T07:05:33;96813.20;;;7.82;100.00
34065;BME280;20339;49.754;20.158;2023-04-30T07:08:05;96808.63;;;7.77;100.00
34065;BME280;20339;49.754;20.158;2023-04-30T07:10:37;96818.85;;;7.67;100.00
34065;BME280;20339;49.754;20.158;2023-04-30T07:13:08;96826.58;;;7.61;100.00
34065;BME280;20339;49.754;20.158;2023-04-30T07:15:39;96826.70;;;7.59;100.00
34065;BME280;20339;49.754;20.158;2023-04-30T07:18:11;96825.73;;;7.54;100.00
34065;BME280;20339;49.754;20.158;2023-04-30T07:20:43;96824.24;;;7.53;100.00
34065;BME280;20339;49.754;20.158;2023-04-30T07:23:15;96824.23;;;7.50;100.00
34065;BME280;20339;49.754;20.158;2023-04-30T07:25:46;96829.64;;;7.48;100.00
34065;BME280;20339;49.754;20.158;2023-04-30T07:28:17;96835.34;;;7.43;100.00
34065;BME280;20339;49.754;20.158;2023-04-30T07:30:48;96837.00;;;7.38;100.00
34065;BME280;20339;49.754;20.158;2023-04-30T07:33:19;96830.45;;;7.30;100.00
34065;BME280;20339;49.754;20.158;2023-04-30T07:35:50;96842.41;;;7.23;100.00
34065;BME280;20339;49.754;20.158;2023-04-30T07:38:23;96844.92;;;7.19;100.00
34065;BME280;20339;49.754;20.158;2023-04-30T07:40:54;96839.33;;;7.17;100.00
34065;BME280;20339;49.754;20.158;2023-04-30T07:43:26;96851.89;;;7.16;100.00
34065;BME280;20339;49.754;20.158;2023-04-30T07:45:58;96853.39;;;7.18;100.00
34065;BME280;20339;49.754;20.158;2023-04-30T07:48:29;96859.09;;;7.19;100.00
34065;BME280;20339;49.754;20.158;2023-04-30T07:51:00;96861.79;;;7.19;100.00
34065;BME280;20339;49.754;20.158;2023-04-30T07:53:33;96864.73;;;7.24;100.00
34065;BME280;20339;49.754;20.158;2023-04-30T07:56:05;96865.65;;;7.21;100.00
34065;BME280;20339;49.754;20.158;2023-04-30T07:58:37;96874.92;;;7.20;100.00
34065;BME280;20339;49.754;20.158;2023-04-30T08:01:08;96869.98;;;7.21;100.00
34065;BME280;20339;49.754;20.158;2023-04-30T08:03:39;96876.14;;;7.16;100.00
34065;BME280;20339;49.754;20.158;2023-04-30T08:06:11;96875.41;;;7.10;100.00
34065;BME280;20339;49.754;20.158;2023-04-30T08:08:42;96882.09;;;7.09;100.00
34065;BME280;20339;49.754;20.158;2023-04-30T08:11:13;96889.55;;;7.11;100.00
34065;BME280;20339;49.754;20.158;2023-04-30T08:13:45;96887.94;;;7.19;100.00
34065;BME280;20339;49.754;20.158;2023-04-30T08:16:16;96882.23;;;7.28;100.00
34065;BME280;20339;49.754;20.158;2023-04-30T08:18:47;96884.23;;;7.40;100.00
34065;BME280;20339;49.754;20.158;2023-04-30T08:21:18;96885.14;;;7.44;100.00
34065;BME280;20339;49.754;20.158;2023-04-30T08:23:49;96895.95;;;7.48;100.00
34065;BME280;20339;49.754;20.158;2023-04-30T08:26:21;96889.54;;;7.63;100.00
34065;BME280;20339;49.754;20.158;2023-04-30T08:28:52;96893.60;;;7.76;100.00
34065;BME280;20339;49.754;20.158;2023-04-30T08:31:23;96896.89;;;7.87;99.95
34065;BME280;20339;49.754;20.158;2023-04-30T08:33:54;96898.16;;;8.04;99.99
34065;BME280;20339;49.754;20.158;2023-04-30T08:36:25;96898.52;;;8.27;99.86
34065;BME280;20339;49.754;20.158;2023-04-30T08:38:56;96902.81;;;8.45;99.45
34065;BME280;20339;49.754;20.158;2023-04-30T08:41:31;96901.74;;;8.56;98.80
34065;BME280;20339;49.754;20.158;2023-04-30T08:44:02;96904.23;;;8.64;98.11
34065;BME280;20339;49.754;20.158;2023-04-30T08:46:34;96910.04;;;8.76;98.08
34065;BME280;20339;49.754;20.158;2023-04-30T08:49:08;96917.06;;;8.88;97.44
34065;BME280;20339;49.754;20.158;2023-04-30T08:51:40;96919.88;;;8.92;96.12
34065;BME280;20339;49.754;20.158;2023-04-30T08:54:12;96923.12;;;9.01;96.05
34065;BME280;20339;49.754;20.158;2023-04-30T08:56:45;96922.51;;;9.02;93.69
34065;BME280;20339;49.754;20.158;2023-04-30T08:59:16;96930.02;;;9.03;93.53
34065;BME280;20339;49.754;20.158;2023-04-30T09:01:47;96933.61;;;9.08;94.04
34065;BME280;20339;49.754;20.158;2023-04-30T09:04:19;96931.45;;;9.29;94.06
34065;BME280;20339;49.754;20.158;2023-04-30T09:06:53;96933.00;;;9.34;93.00
34065;BME280;20339;49.754;20.158;2023-04-30T09:09:36;96931.41;;;9.35;91.72
34065;BME280;20339;49.754;20.158;2023-04-30T09:12:16;96934.64;;;9.34;91.25
34065;BME280;20339;49.754;20.158;2023-04-30T09:15:01;96929.62;;;9.47;91.81
34065;BME280;20339;49.754;20.158;2023-04-30T09:17:33;96935.77;;;9.53;90.73
34065;BME280;20339;49.754;20.158;2023-04-30T09:20:09;96938.74;;;9.59;90.79
34065;BME280;20339;49.754;20.158;2023-04-30T09:22:41;96931.70;;;9.51;87.97
34065;BME280;20339;49.754;20.158;2023-04-30T09:25:13;96931.89;;;9.41;87.71
34065;BME280;20339;49.754;20.158;2023-04-30T09:27:45;96930.67;;;9.42;87.65
34065;BME280;20339;49.754;20.158;2023-04-30T09:30:30;96920.27;;;9.48;88.17
34065;BME280;20339;49.754;20.158;2023-04-30T09:33:02;96926.60;;;9.54;87.26
34065;BME280;20339;49.754;20.158;2023-04-30T09:35:35;96922.98;;;9.65;87.71
34065;BME280;20339;49.754;20.158;2023-04-30T09:38:08;96925.79;;;9.76;87.07
34065;BME280;20339;49.754;20.158;2023-04-30T09:40:56;96932.20;;;9.80;86.56
34065;BME280;20339;49.754;20.158;2023-04-30T09:43:27;96928.28;;;9.86;85.54
34065;BME280;20339;49.754;20.158;2023-04-30T09:45:59;96927.05;;;9.84;84.32
34065;BME280;20339;49.754;20.158;2023-04-30T09:48:30;96932.62;;;9.92;84.75
34065;BME280;20339;49.754;20.158;2023-04-30T09:51:03;96923.23;;;10.20;84.72
34065;BME280;20339;49.754;20.158;2023-04-30T09:53:37;96924.95;;;10.76;84.70
34065;BME280;20339;49.754;20.158;2023-04-30T09:56:10;96922.94;;;11.10;81.95
34065;BME280;20339;49.754;20.158;2023-04-30T09:58:44;96924.59;;;11.07;80.31
34065;BME280;20339;49.754;20.158;2023-04-30T10:01:18;96917.54;;;10.85;79.26
34065;BME280;20339;49.754;20.158;2023-04-30T10:03:50;96923.51;;;10.64;79.51
34065;BME280;20339;49.754;20.158;2023-04-30T10:06:21;96926.13;;;10.72;80.04
34065;BME280;20339;49.754;20.158;2023-04-30T10:08:55;96919.39;;;11.08;81.62
34065;BME280;20339;49.754;20.158;2023-04-30T10:11:28;96909.67;;;11.27;78.04
34065;BME280;20339;49.754;20.158;2023-04-30T10:14:06;96915.11;;;11.24;76.82
34065;BME280;20339;49.754;20.158;2023-04-30T10:16:46;96903.30;;;11.53;77.60
34065;BME280;20339;49.754;20.158;2023-04-30T10:19:21;96904.70;;;11.64;76.14
34065;BME280;20339;49.754;20.158;2023-04-30T10:21:53;96903.95;;;11.96;77.86
34065;BME280;20339;49.754;20.158;2023-04-30T10:24:25;96903.89;;;12.03;75.56
34065;BME280;20339;49.754;20.158;2023-04-30T10:26:56;96905.36;;;11.87;75.94
34065;BME280;20339;49.754;20.158;2023-04-30T10:29:28;96905.66;;;11.81;74.17
34065;BME280;20339;49.754;20.158;2023-04-30T10:32:00;96906.50;;;11.52;73.81
34065;BME280;20339;49.754;20.158;2023-04-30T10:34:40;96905.39;;;11.49;75.17
34065;BME280;20339;49.754;20.158;2023-04-30T10:37:19;96900.14;;;11.87;75.10
34065;BME280;20339;49.754;20.158;2023-04-30T10:39:52;96905.20;;;12.04;72.90
34065;BME280;20339;49.754;20.158;2023-04-30T10:42:24;96899.74;;;11.96;70.84
34065;BME280;20339;49.754;20.158;2023-04-30T10:44:55;96907.29;;;11.85;71.11
34065;BME280;20339;49.754;20.158;2023-04-30T10:47:30;96897.77;;;12.09;71.53
34065;BME280;20339;49.754;20.158;2023-04-30T10:50:06;96900.06;;;12.40;71.77
34065;BME280;20339;49.754;20.158;2023-04-30T10:52:38;96893.90;;;12.62;70.53
34065;BME280;20339;49.754;20.158;2023-04-30T10:55:15;96895.14;;;12.48;69.80
34065;BME280;20339;49.754;20.158;2023-04-30T10:57:47;96897.09;;;12.39;71.61
34065;BME280;20339;49.754;20.158;2023-04-30T11:00:25;96893.02;;;12.46;70.90
34065;BME280;20339;49.754;20.158;2023-04-30T11:03:04;96884.64;;;12.55;68.19
34065;BME280;20339;49.754;20.158;2023-04-30T11:05:37;96884.64;;;12.73;66.63
34065;BME280;20339;49.754;20.158;2023-04-30T11:08:11;96889.50;;;12.91;64.98
34065;BME280;20339;49.754;20.158;2023-04-30T11:10:57;96890.90;;;12.91;64.97
34065;BME280;20339;49.754;20.158;2023-04-30T11:13:39;96884.98;;;12.76;64.63
34065;BME280;20339;49.754;20.158;2023-04-30T11:16:11;96885.58;;;12.52;64.35
34065;BME280;20339;49.754;20.158;2023-04-30T11:18:46;96882.05;;;12.34;63.74
34065;BME280;20339;49.754;20.158;2023-04-30T11:21:18;96881.88;;;12.30;65.13
34065;BME280;20339;49.754;20.158;2023-04-30T11:23:51;96877.25;;;12.58;65.68
34065;BME280;20339;49.754;20.158;2023-04-30T11:26:23;96875.86;;;12.64;63.60
34065;BME280;20339;49.754;20.158;2023-04-30T11:28:56;96885.29;;;12.55;63.63
34065;BME280;20339;49.754;20.158;2023-04-30T11:31:34;96884.05;;;12.82;64.57
34065;BME280;20339;49.754;20.158;2023-04-30T11:34:06;96885.15;;;13.07;62.10
34065;BME280;20339;49.754;20.158;2023-04-30T11:36:39;96886.52;;;13.41;63.89
34065;BME280;20339;49.754;20.158;2023-04-30T11:39:11;96889.19;;;13.82;63.68
34065;BME280;20339;49.754;20.158;2023-04-30T11:41:43;96889.06;;;13.80;61.97
34065;BME280;20339;49.754;20.158;2023-04-30T11:44:31;96892.52;;;13.63;60.84
34065;BME280;20339;49.754;20.158;2023-04-30T11:47:02;96892.73;;;13.31;60.64
34065;BME280;20339;49.754;20.158;2023-04-30T11:49:33;96894.27;;;13.25;59.59
34065;BME280;20339;49.754;20.158;2023-04-30T11:52:05;96894.33;;;13.11;59.32
34065;BME280;20339;49.754;20.158;2023-04-30T11:54:38;96889.11;;;13.31;60.03
34065;BME280;20339;49.754;20.158;2023-04-30T11:57:09;96885.73;;;13.46;60.46
34065;BME280;20339;49.754;20.158;2023-04-30T11:59:43;96887.62;;;13.50;59.58
34065;BME280;20339;49.754;20.158;2023-04-30T12:02:16;96883.30;;;13.23;57.31
34065;BME280;20339;49.754;20.158;2023-04-30T12:04:48;96890.67;;;12.98;57.91
34065;BME280;20339;49.754;20.158;2023-04-30T12:07:19;96894.34;;;13.09;59.52
34065;BME280;20339;49.754;20.158;2023-04-30T12:09:55;96893.11;;;13.13;57.93
34065;BME280;20339;49.754;20.158;2023-04-30T12:12:30;96889.52;;;13.06;58.04
34065;BME280;20339;49.754;20.158;2023-04-30T12:15:11;96891.39;;;13.15;56.68
34065;BME280;20339;49.754;20.158;2023-04-30T12:17:43;96881.95;;;13.12;55.74
34065;BME280;20339;49.754;20.158;2023-04-30T12:20:15;96891.77;;;13.27;56.87
34065;BME280;20339;49.754;20.158;2023-04-30T12:22:47;96886.80;;;13.63;58.31
34065;BME280;20339;49.754;20.158;2023-04-30T12:25:21;96884.70;;;13.86;58.16
34065;BME280;20339;49.754;20.158;2023-04-30T12:27:53;96886.80;;;13.90;57.72
34065;BME280;20339;49.754;20.158;2023-04-30T12:30:26;96882.43;;;13.90;57.91
34065;BME280;20339;49.754;20.158;2023-04-30T12:32:59;96879.31;;;13.73;55.70
34065;BME280;20339;49.754;20.158;2023-04-30T12:35:32;96881.04;;;13.51;55.93
34065;BME280;20339;49.754;20.158;2023-04-30T12:38:04;96877.67;;;13.88;56.69
34065;BME280;20339;49.754;20.158;2023-04-30T12:40:36;96872.77;;;14.19;56.67
34065;BME280;20339;49.754;20.158;2023-04-30T12:43:13;96870.35;;;14.10;54.49
34065;BME280;20339;49.754;20.158;2023-04-30T12:45:51;96870.47;;;13.92;54.14
34065;BME280;20339;49.754;20.158;2023-04-30T12:48:24;96868.77;;;13.78;54.22
34065;BME280;20339;49.754;20.158;2023-04-30T12:50:59;96861.89;;;13.88;54.01
34065;BME280;20339;49.754;20.158;2023-04-30T12:53:32;96868.55;;;13.86;53.92
34065;BME280;20339;49.754;20.158;2023-04-30T12:56:10;96871.06;;;13.83;54.65
34065;BME280;20339;49.754;20.158;2023-04-30T12:58:43;96870.77;;;13.93;55.41
34065;BME280;20339;49.754;20.158;2023-04-30T13:01:18;96874.25;;;14.01;53.93
34065;BME280;20339;49.754;20.158;2023-04-30T13:03:49;96870.81;;;14.24;54.58
34065;BME280;20339;49.754;20.158;2023-04-30T13:06:21;96866.63;;;14.63;54.28
34065;BME280;20339;49.754;20.158;2023-04-30T13:08:52;96859.54;;;14.78;54.38
34065;BME280;20339;49.754;20.158;2023-04-30T13:11:24;96855.96;;;15.08;54.71
34065;BME280;20339;49.754;20.158;2023-04-30T13:13:58;96854.94;;;15.28;53.20
34065;BME280;20339;49.754;20.158;2023-04-30T13:16:31;96845.07;;;15.20;50.65
34065;BME280;20339;49.754;20.158;2023-04-30T13:19:04;96841.27;;;15.16;50.99
34065;BME280;20339;49.754;20.158;2023-04-30T13:21:38;96832.66;;;15.32;51.15